Esbjerg, Denmark
Current Conditions -  °F | °C
As of 6:50 AM on Friday 28 Nov 2014 (Local Time) from EKEB Reporting Station
Few Clouds Few Clouds  
Wind Chill: 27°   Ceiling: Unl
Heat Index: 36°   Visibility: 4mi
Dew Point: 32°   Wind: 14mph
Humidity: 87%   Direction: 90°E
Pressure: 30.06"   Gusts: NA
Location:  55.47°N, 8.45°E
Report Text: EKEB 280550Z AUTO 09012KT 7000NDV FEW015/// 02/00 Q1018
Loading
Personal Weather Stations






























Interactive Weather Map New forecast layout! Learn more

10-Day Weather Forecast

Advertisements
Track Severe Weather on mobile